sensor_id;sensor_type;location;lat;lon;timestamp;P1;durP1;ratioP1;P2;durP2;ratioP2
1721;SDS011;858;53.190;8.596;2023-04-03T00:02:21;3.30;;;2.40;;
1721;SDS011;858;53.190;8.596;2023-04-03T00:04:49;6.70;;;2.60;;
1721;SDS011;858;53.190;8.596;2023-04-03T00:07:16;4.72;;;2.03;;
1721;SDS011;858;53.190;8.596;2023-04-03T00:09:42;5.35;;;2.03;;
1721;SDS011;858;53.190;8.596;2023-04-03T00:12:09;4.70;;;2.00;;
1721;SDS011;858;53.190;8.596;2023-04-03T00:14:35;6.88;;;1.90;;
1721;SDS011;858;53.190;8.596;2023-04-03T00:17:02;5.80;;;2.50;;
1721;SDS011;858;53.190;8.596;2023-04-03T00:19:28;7.20;;;2.75;;
1721;SDS011;858;53.190;8.596;2023-04-03T00:21:56;6.45;;;2.40;;
1721;SDS011;858;53.190;8.596;2023-04-03T00:24:22;4.45;;;3.00;;
1721;SDS011;858;53.190;8.596;2023-04-03T00:26:49;4.70;;;1.90;;
1721;SDS011;858;53.190;8.596;2023-04-03T00:29:15;7.03;;;2.33;;
1721;SDS011;858;53.190;8.596;2023-04-03T00:31:43;6.30;;;2.78;;
1721;SDS011;858;53.190;8.596;2023-04-03T00:34:10;5.05;;;2.47;;
1721;SDS011;858;53.190;8.596;2023-04-03T00:36:37;6.15;;;2.40;;
1721;SDS011;858;53.190;8.596;2023-04-03T00:39:04;4.40;;;2.03;;
1721;SDS011;858;53.190;8.596;2023-04-03T00:41:31;4.25;;;2.00;;
1721;SDS011;858;53.190;8.596;2023-04-03T00:43:57;7.15;;;2.88;;
1721;SDS011;858;53.190;8.596;2023-04-03T00:46:24;4.35;;;2.13;;
1721;SDS011;858;53.190;8.596;2023-04-03T00:48:51;5.30;;;2.40;;
1721;SDS011;858;53.190;8.596;2023-04-03T00:51:19;4.80;;;2.30;;
1721;SDS011;858;53.190;8.596;2023-04-03T00:53:47;4.55;;;2.20;;
1721;SDS011;858;53.190;8.596;2023-04-03T00:56:16;4.00;;;2.60;;
1721;SDS011;858;53.190;8.596;2023-04-03T00:58:44;5.50;;;2.30;;
1721;SDS011;858;53.190;8.596;2023-04-03T01:01:14;6.30;;;2.33;;
1721;SDS011;858;53.190;8.596;2023-04-03T01:03:42;8.80;;;2.90;;
1721;SDS011;858;53.190;8.596;2023-04-03T01:06:08;5.05;;;2.45;;
1721;SDS011;858;53.190;8.596;2023-04-03T01:08:34;7.37;;;2.60;;
1721;SDS011;858;53.190;8.596;2023-04-03T01:11:01;6.30;;;2.20;;
1721;SDS011;858;53.190;8.596;2023-04-03T01:13:30;5.13;;;2.50;;
1721;SDS011;858;53.190;8.596;2023-04-03T01:15:57;5.88;;;2.75;;
1721;SDS011;858;53.190;8.596;2023-04-03T01:18:26;5.87;;;2.40;;
1721;SDS011;858;53.190;8.596;2023-04-03T01:21:05;5.45;;;2.47;;
1721;SDS011;858;53.190;8.596;2023-04-03T01:23:39;6.32;;;2.83;;
1721;SDS011;858;53.190;8.596;2023-04-03T01:26:07;5.13;;;2.38;;
1721;SDS011;858;53.190;8.596;2023-04-03T01:28:36;4.60;;;2.45;;
1721;SDS011;858;53.190;8.596;2023-04-03T01:31:06;7.90;;;2.77;;
1721;SDS011;858;53.190;8.596;2023-04-03T01:33:37;6.30;;;2.40;;
1721;SDS011;858;53.190;8.596;2023-04-03T01:36:04;10.00;;;2.87;;
1721;SDS011;858;53.190;8.596;2023-04-03T01:38:31;6.07;;;2.53;;
1721;SDS011;858;53.190;8.596;2023-04-03T01:40:59;7.05;;;2.65;;
1721;SDS011;858;53.190;8.596;2023-04-03T01:43:25;6.40;;;2.60;;
1721;SDS011;858;53.190;8.596;2023-04-03T01:45:52;5.05;;;2.42;;
1721;SDS011;858;53.190;8.596;2023-04-03T01:48:19;7.30;;;2.10;;
1721;SDS011;858;53.190;8.596;2023-04-03T01:50:47;5.30;;;2.30;;
1721;SDS011;858;53.190;8.596;2023-04-03T01:53:14;4.63;;;2.63;;
1721;SDS011;858;53.190;8.596;2023-04-03T01:55:40;5.80;;;2.80;;
1721;SDS011;858;53.190;8.596;2023-04-03T01:58:06;8.20;;;2.40;;
1721;SDS011;858;53.190;8.596;2023-04-03T02:00:34;6.72;;;2.60;;
1721;SDS011;858;53.190;8.596;2023-04-03T02:03:01;6.45;;;3.05;;
1721;SDS011;858;53.190;8.596;2023-04-03T02:05:27;8.73;;;2.90;;
1721;SDS011;858;53.190;8.596;2023-04-03T02:07:56;7.40;;;2.63;;
1721;SDS011;858;53.190;8.596;2023-04-03T02:10:22;8.05;;;2.47;;
1721;SDS011;858;53.190;8.596;2023-04-03T02:12:48;8.10;;;2.70;;
1721;SDS011;858;53.190;8.596;2023-04-03T02:15:15;7.35;;;3.00;;
1721;SDS011;858;53.190;8.596;2023-04-03T02:17:42;7.65;;;2.58;;
1721;SDS011;858;53.190;8.596;2023-04-03T02:20:09;6.05;;;2.70;;
1721;SDS011;858;53.190;8.596;2023-04-03T02:22:36;7.63;;;3.70;;
1721;SDS011;858;53.190;8.596;2023-04-03T02:25:04;8.00;;;3.13;;
1721;SDS011;858;53.190;8.596;2023-04-03T02:27:30;6.10;;;2.60;;
1721;SDS011;858;53.190;8.596;2023-04-03T02:29:57;5.03;;;2.70;;
1721;SDS011;858;53.190;8.596;2023-04-03T02:32:23;8.38;;;2.97;;
1721;SDS011;858;53.190;8.596;2023-04-03T02:34:50;5.60;;;3.00;;
1721;SDS011;858;53.190;8.596;2023-04-03T02:37:16;6.97;;;2.60;;
1721;SDS011;858;53.190;8.596;2023-04-03T02:39:42;7.55;;;3.00;;
1721;SDS011;858;53.190;8.596;2023-04-03T02:42:10;6.50;;;2.50;;
1721;SDS011;858;53.190;8.596;2023-04-03T02:44:36;7.22;;;3.67;;
1721;SDS011;858;53.190;8.596;2023-04-03T02:47:05;4.60;;;3.20;;
1721;SDS011;858;53.190;8.596;2023-04-03T02:49:31;11.25;;;3.80;;
1721;SDS011;858;53.190;8.596;2023-04-03T02:51:58;10.77;;;3.40;;
1721;SDS011;858;53.190;8.596;2023-04-03T02:54:24;7.50;;;3.20;;
1721;SDS011;858;53.190;8.596;2023-04-03T02:56:53;6.22;;;3.10;;
1721;SDS011;858;53.190;8.596;2023-04-03T02:59:21;7.75;;;3.67;;
1721;SDS011;858;53.190;8.596;2023-04-03T03:01:47;6.47;;;2.80;;
1721;SDS011;858;53.190;8.596;2023-04-03T03:04:14;7.60;;;3.10;;
1721;SDS011;858;53.190;8.596;2023-04-03T03:06:40;9.38;;;2.88;;
1721;SDS011;858;53.190;8.596;2023-04-03T03:09:06;5.72;;;2.80;;
1721;SDS011;858;53.190;8.596;2023-04-03T03:11:33;4.72;;;2.78;;
1721;SDS011;858;53.190;8.596;2023-04-03T03:13:59;5.75;;;3.10;;
1721;SDS011;858;53.190;8.596;2023-04-03T03:16:27;5.60;;;2.60;;
1721;SDS011;858;53.190;8.596;2023-04-03T03:18:53;5.63;;;3.17;;
1721;SDS011;858;53.190;8.596;2023-04-03T03:21:20;5.82;;;3.10;;
1721;SDS011;858;53.190;8.596;2023-04-03T03:23:46;5.72;;;3.10;;
1721;SDS011;858;53.190;8.596;2023-04-03T03:26:13;7.68;;;3.00;;
1721;SDS011;858;53.190;8.596;2023-04-03T03:28:39;5.32;;;3.38;;
1721;SDS011;858;53.190;8.596;2023-04-03T03:31:07;8.20;;;2.92;;
1721;SDS011;858;53.190;8.596;2023-04-03T03:33:35;7.18;;;3.28;;
1721;SDS011;858;53.190;8.596;2023-04-03T03:36:01;5.03;;;3.25;;
1721;SDS011;858;53.190;8.596;2023-04-03T03:38:29;9.18;;;3.75;;
1721;SDS011;858;53.190;8.596;2023-04-03T03:40:55;9.23;;;4.25;;
1721;SDS011;858;53.190;8.596;2023-04-03T03:43:22;6.80;;;3.40;;
1721;SDS011;858;53.190;8.596;2023-04-03T03:45:49;6.45;;;3.50;;
1721;SDS011;858;53.190;8.596;2023-04-03T03:48:16;4.90;;;3.00;;
1721;SDS011;858;53.190;8.596;2023-04-03T03:50:44;7.80;;;3.50;;
1721;SDS011;858;53.190;8.596;2023-04-03T03:53:10;5.93;;;3.05;;
1721;SDS011;858;53.190;8.596;2023-04-03T03:55:36;7.20;;;3.42;;
1721;SDS011;858;53.190;8.596;2023-04-03T03:58:03;6.47;;;3.25;;
1721;SDS011;858;53.190;8.596;2023-04-03T04:00:29;6.28;;;3.55;;
1721;SDS011;858;53.190;8.596;2023-04-03T04:02:56;8.05;;;4.03;;
1721;SDS011;858;53.190;8.596;2023-04-03T04:05:23;7.55;;;3.75;;
1721;SDS011;858;53.190;8.596;2023-04-03T04:07:50;9.30;;;3.90;;
1721;SDS011;858;53.190;8.596;2023-04-03T04:10:17;6.63;;;3.65;;
1721;SDS011;858;53.190;8.596;2023-04-03T04:12:43;8.02;;;3.60;;
1721;SDS011;858;53.190;8.596;2023-04-03T04:15:10;7.35;;;3.65;;
1721;SDS011;858;53.190;8.596;2023-04-03T04:17:36;9.10;;;4.00;;
1721;SDS011;858;53.190;8.596;2023-04-03T04:20:03;9.70;;;4.20;;
1721;SDS011;858;53.190;8.596;2023-04-03T04:22:30;5.27;;;3.13;;
1721;SDS011;858;53.190;8.596;2023-04-03T04:24:58;6.27;;;3.43;;
1721;SDS011;858;53.190;8.596;2023-04-03T04:27:24;8.02;;;3.90;;
1721;SDS011;858;53.190;8.596;2023-04-03T04:29:50;6.38;;;3.30;;
1721;SDS011;858;53.190;8.596;2023-04-03T04:32:17;5.18;;;3.20;;
1721;SDS011;858;53.190;8.596;2023-04-03T04:34:43;10.98;;;3.15;;
1721;SDS011;858;53.190;8.596;2023-04-03T04:37:10;4.82;;;3.10;;
1721;SDS011;858;53.190;8.596;2023-04-03T04:39:36;8.25;;;3.50;;
1721;SDS011;858;53.190;8.596;2023-04-03T04:42:05;6.82;;;3.03;;
1721;SDS011;858;53.190;8.596;2023-04-03T04:44:37;7.05;;;3.25;;
1721;SDS011;858;53.190;8.596;2023-04-03T04:47:03;7.13;;;3.10;;
1721;SDS011;858;53.190;8.596;2023-04-03T04:49:31;5.35;;;2.85;;
1721;SDS011;858;53.190;8.596;2023-04-03T04:51:57;8.70;;;3.60;;
1721;SDS011;858;53.190;8.596;2023-04-03T04:54:23;4.15;;;3.35;;
1721;SDS011;858;53.190;8.596;2023-04-03T04:56:51;9.05;;;3.55;;
1721;SDS011;858;53.190;8.596;2023-04-03T04:59:19;9.60;;;3.43;;
1721;SDS011;858;53.190;8.596;2023-04-03T05:01:45;5.50;;;3.20;;
1721;SDS011;858;53.190;8.596;2023-04-03T05:04:12;9.70;;;3.78;;
1721;SDS011;858;53.190;8.596;2023-04-03T05:06:39;7.30;;;3.53;;
1721;SDS011;858;53.190;8.596;2023-04-03T05:09:05;7.65;;;4.07;;
1721;SDS011;858;53.190;8.596;2023-04-03T05:11:32;7.90;;;3.83;;
1721;SDS011;858;53.190;8.596;2023-04-03T05:13:58;7.15;;;3.78;;
1721;SDS011;858;53.190;8.596;2023-04-03T05:16:26;9.20;;;3.95;;
1721;SDS011;858;53.190;8.596;2023-04-03T05:18:52;11.20;;;4.40;;
1721;SDS011;858;53.190;8.596;2023-04-03T05:21:19;12.63;;;5.10;;
1721;SDS011;858;53.190;8.596;2023-04-03T05:23:48;11.38;;;4.80;;
1721;SDS011;858;53.190;8.596;2023-04-03T05:26:14;7.22;;;4.72;;
1721;SDS011;858;53.190;8.596;2023-04-03T05:28:40;7.65;;;4.30;;
1721;SDS011;858;53.190;8.596;2023-04-03T05:31:07;8.45;;;4.82;;
1721;SDS011;858;53.190;8.596;2023-04-03T05:33:35;11.60;;;5.80;;
1721;SDS011;858;53.190;8.596;2023-04-03T05:36:02;10.30;;;5.65;;
1721;SDS011;858;53.190;8.596;2023-04-03T05:38:29;11.63;;;5.40;;
1721;SDS011;858;53.190;8.596;2023-04-03T05:40:55;10.32;;;6.00;;
1721;SDS011;858;53.190;8.596;2023-04-03T05:43:22;9.70;;;5.55;;
1721;SDS011;858;53.190;8.596;2023-04-03T05:45:48;11.02;;;5.90;;
1721;SDS011;858;53.190;8.596;2023-04-03T05:48:14;11.30;;;5.45;;
1721;SDS011;858;53.190;8.596;2023-04-03T05:50:42;13.45;;;6.03;;
1721;SDS011;858;53.190;8.596;2023-04-03T05:53:09;10.40;;;5.33;;
1721;SDS011;858;53.190;8.596;2023-04-03T05:55:40;8.43;;;6.03;;
1721;SDS011;858;53.190;8.596;2023-04-03T05:58:07;12.85;;;5.63;;
1721;SDS011;858;53.190;8.596;2023-04-03T06:00:33;10.10;;;5.18;;
1721;SDS011;858;53.190;8.596;2023-04-03T06:02:59;8.75;;;5.20;;
1721;SDS011;858;53.190;8.596;2023-04-03T06:05:26;11.50;;;5.30;;
1721;SDS011;858;53.190;8.596;2023-04-03T06:07:54;9.48;;;4.70;;
1721;SDS011;858;53.190;8.596;2023-04-03T06:10:22;12.15;;;4.70;;
1721;SDS011;858;53.190;8.596;2023-04-03T06:12:48;10.93;;;4.63;;
1721;SDS011;858;53.190;8.596;2023-04-03T06:15:15;9.45;;;4.65;;
1721;SDS011;858;53.190;8.596;2023-04-03T06:17:42;8.95;;;4.20;;
1721;SDS011;858;53.190;8.596;2023-04-03T06:20:09;7.45;;;4.70;;
1721;SDS011;858;53.190;8.596;2023-04-03T06:22:36;9.85;;;3.83;;
1721;SDS011;858;53.190;8.596;2023-04-03T06:25:04;13.55;;;4.68;;
1721;SDS011;858;53.190;8.596;2023-04-03T06:27:31;8.93;;;3.93;;
1721;SDS011;858;53.190;8.596;2023-04-03T06:29:57;5.70;;;3.40;;
1721;SDS011;858;53.190;8.596;2023-04-03T06:32:24;8.10;;;3.80;;
1721;SDS011;858;53.190;8.596;2023-04-03T06:34:51;8.25;;;4.00;;
1721;SDS011;858;53.190;8.596;2023-04-03T06:37:19;8.63;;;3.40;;
1721;SDS011;858;53.190;8.596;2023-04-03T06:39:46;6.75;;;2.90;;
1721;SDS011;858;53.190;8.596;2023-04-03T06:42:14;6.13;;;2.80;;
1721;SDS011;858;53.190;8.596;2023-04-03T06:44:41;7.18;;;2.88;;
1721;SDS011;858;53.190;8.596;2023-04-03T06:47:08;7.15;;;3.08;;
1721;SDS011;858;53.190;8.596;2023-04-03T06:49:36;6.25;;;2.67;;
1721;SDS011;858;53.190;8.596;2023-04-03T06:52:03;7.00;;;2.90;;
1721;SDS011;858;53.190;8.596;2023-04-03T06:54:29;7.43;;;2.70;;
1721;SDS011;858;53.190;8.596;2023-04-03T06:56:56;7.65;;;2.20;;
1721;SDS011;858;53.190;8.596;2023-04-03T06:59:24;6.78;;;2.22;;
1721;SDS011;858;53.190;8.596;2023-04-03T07:01:50;7.40;;;2.30;;
1721;SDS011;858;53.190;8.596;2023-04-03T07:04:17;5.45;;;2.20;;
1721;SDS011;858;53.190;8.596;2023-04-03T07:06:45;3.80;;;1.85;;
1721;SDS011;858;53.190;8.596;2023-04-03T07:09:11;5.05;;;2.10;;
1721;SDS011;858;53.190;8.596;2023-04-03T07:11:38;6.05;;;2.10;;
1721;SDS011;858;53.190;8.596;2023-04-03T07:14:05;3.33;;;2.15;;
1721;SDS011;858;53.190;8.596;2023-04-03T07:16:35;4.78;;;2.10;;
1721;SDS011;858;53.190;8.596;2023-04-03T07:19:01;6.85;;;2.40;;
1721;SDS011;858;53.190;8.596;2023-04-03T07:21:28;4.20;;;1.95;;
1721;SDS011;858;53.190;8.596;2023-04-03T07:23:54;6.15;;;2.10;;
1721;SDS011;858;53.190;8.596;2023-04-03T07:26:21;3.70;;;1.70;;
1721;SDS011;858;53.190;8.596;2023-04-03T07:28:47;4.60;;;1.90;;
1721;SDS011;858;53.190;8.596;2023-04-03T07:31:15;5.72;;;2.00;;
1721;SDS011;858;53.190;8.596;2023-04-03T07:33:43;4.80;;;1.70;;
1721;SDS011;858;53.190;8.596;2023-04-03T07:36:10;4.90;;;2.08;;
1721;SDS011;858;53.190;8.596;2023-04-03T07:38:37;5.47;;;2.00;;
1721;SDS011;858;53.190;8.596;2023-04-03T07:41:03;5.00;;;2.00;;
1721;SDS011;858;53.190;8.596;2023-04-03T07:43:30;8.25;;;2.10;;
1721;SDS011;858;53.190;8.596;2023-04-03T07:45:57;3.75;;;1.70;;
1721;SDS011;858;53.190;8.596;2023-04-03T07:48:24;3.63;;;1.70;;
1721;SDS011;858;53.190;8.596;2023-04-03T07:50:52;3.63;;;2.15;;
1721;SDS011;858;53.190;8.596;2023-04-03T07:53:19;2.80;;;1.50;;
1721;SDS011;858;53.190;8.596;2023-04-03T07:55:46;4.80;;;1.73;;
1721;SDS011;858;53.190;8.596;2023-04-03T07:58:13;5.53;;;1.80;;
1721;SDS011;858;53.190;8.596;2023-04-03T08:00:40;1.88;;;1.45;;
1721;SDS011;858;53.190;8.596;2023-04-03T08:03:07;2.70;;;1.45;;
1721;SDS011;858;53.190;8.596;2023-04-03T08:05:36;3.28;;;1.50;;
1721;SDS011;858;53.190;8.596;2023-04-03T08:08:04;4.82;;;1.63;;
1721;SDS011;858;53.190;8.596;2023-04-03T08:10:30;5.93;;;1.88;;
1721;SDS011;858;53.190;8.596;2023-04-03T08:12:57;2.55;;;1.60;;
1721;SDS011;858;53.190;8.596;2023-04-03T08:15:25;5.35;;;2.00;;
1721;SDS011;858;53.190;8.596;2023-04-03T08:17:55;5.00;;;2.00;;
1721;SDS011;858;53.190;8.596;2023-04-03T08:20:21;4.00;;;1.70;;
1721;SDS011;858;53.190;8.596;2023-04-03T08:22:47;4.10;;;1.60;;
1721;SDS011;858;53.190;8.596;2023-04-03T08:25:16;3.80;;;1.70;;
1721;SDS011;858;53.190;8.596;2023-04-03T08:27:43;3.55;;;1.60;;
1721;SDS011;858;53.190;8.596;2023-04-03T08:30:09;3.85;;;1.80;;
1721;SDS011;858;53.190;8.596;2023-04-03T08:32:36;3.00;;;1.98;;
1721;SDS011;858;53.190;8.596;2023-04-03T08:35:02;2.70;;;1.73;;
1721;SDS011;858;53.190;8.596;2023-04-03T08:37:29;2.55;;;2.03;;
1721;SDS011;858;53.190;8.596;2023-04-03T08:39:56;2.60;;;1.50;;
1721;SDS011;858;53.190;8.596;2023-04-03T08:42:31;5.50;;;1.83;;
1721;SDS011;858;53.190;8.596;2023-04-03T08:45:04;4.20;;;1.75;;
1721;SDS011;858;53.190;8.596;2023-04-03T08:47:34;4.57;;;1.70;;
1721;SDS011;858;53.190;8.596;2023-04-03T08:50:04;4.43;;;1.67;;
1721;SDS011;858;53.190;8.596;2023-04-03T08:52:35;4.97;;;1.50;;
1721;SDS011;858;53.190;8.596;2023-04-03T08:55:03;3.30;;;1.33;;
1721;SDS011;858;53.190;8.596;2023-04-03T08:57:34;4.22;;;1.20;;
1721;SDS011;858;53.190;8.596;2023-04-03T09:00:03;2.73;;;1.27;;
1721;SDS011;858;53.190;8.596;2023-04-03T09:02:31;2.70;;;1.40;;
1721;SDS011;858;53.190;8.596;2023-04-03T09:04:59;3.75;;;1.40;;
1721;SDS011;858;53.190;8.596;2023-04-03T09:07:30;3.00;;;1.35;;
1721;SDS011;858;53.190;8.596;2023-04-03T09:09:58;3.17;;;1.50;;
1721;SDS011;858;53.190;8.596;2023-04-03T09:12:27;2.65;;;1.50;;
1721;SDS011;858;53.190;8.596;2023-04-03T09:14:59;1.92;;;1.27;;
1721;SDS011;858;53.190;8.596;2023-04-03T09:17:32;4.80;;;1.20;;
1721;SDS011;858;53.190;8.596;2023-04-03T09:20:02;1.40;;;1.00;;
1721;SDS011;858;53.190;8.596;2023-04-03T09:22:32;3.22;;;1.30;;
1721;SDS011;858;53.190;8.596;2023-04-03T09:25:00;2.60;;;1.30;;
1721;SDS011;858;53.190;8.596;2023-04-03T09:27:27;3.00;;;1.10;;
1721;SDS011;858;53.190;8.596;2023-04-03T09:29:55;2.90;;;1.20;;
1721;SDS011;858;53.190;8.596;2023-04-03T09:32:27;4.57;;;1.35;;
1721;SDS011;858;53.190;8.596;2023-04-03T09:34:55;2.03;;;1.17;;
1721;SDS011;858;53.190;8.596;2023-04-03T09:37:33;2.17;;;1.10;;
1721;SDS011;858;53.190;8.596;2023-04-03T09:40:00;2.65;;;1.08;;
1721;SDS011;858;53.190;8.596;2023-04-03T09:42:26;3.13;;;1.10;;
1721;SDS011;858;53.190;8.596;2023-04-03T09:44:53;2.20;;;1.30;;
1721;SDS011;858;53.190;8.596;2023-04-03T09:47:23;2.40;;;1.30;;
1721;SDS011;858;53.190;8.596;2023-04-03T09:49:51;3.10;;;1.30;;
1721;SDS011;858;53.190;8.596;2023-04-03T09:52:34;3.60;;;1.02;;
1721;SDS011;858;53.190;8.596;2023-04-03T09:55:05;2.27;;;1.07;;
1721;SDS011;858;53.190;8.596;2023-04-03T09:57:33;3.67;;;1.10;;
1721;SDS011;858;53.190;8.596;2023-04-03T10:00:00;3.50;;;0.90;;
1721;SDS011;858;53.190;8.596;2023-04-03T10:02:34;2.80;;;1.10;;
1721;SDS011;858;53.190;8.596;2023-04-03T10:05:03;1.35;;;1.20;;
1721;SDS011;858;53.190;8.596;2023-04-03T10:07:32;3.90;;;1.25;;
1721;SDS011;858;53.190;8.596;2023-04-03T10:09:59;2.40;;;1.27;;
1721;SDS011;858;53.190;8.596;2023-04-03T10:12:26;2.38;;;1.17;;
1721;SDS011;858;53.190;8.596;2023-04-03T10:14:54;3.22;;;1.30;;
1721;SDS011;858;53.190;8.596;2023-04-03T10:17:22;2.72;;;1.20;;
1721;SDS011;858;53.190;8.596;2023-04-03T10:19:51;2.75;;;1.27;;
1721;SDS011;858;53.190;8.596;2023-04-03T10:22:21;2.58;;;1.30;;
1721;SDS011;858;53.190;8.596;2023-04-03T10:24:59;2.88;;;1.50;;
1721;SDS011;858;53.190;8.596;2023-04-03T10:27:33;2.70;;;1.10;;
1721;SDS011;858;53.190;8.596;2023-04-03T10:30:18;2.70;;;1.20;;
1721;SDS011;858;53.190;8.596;2023-04-03T10:32:48;1.90;;;1.10;;
1721;SDS011;858;53.190;8.596;2023-04-03T10:35:22;3.35;;;1.02;;
1721;SDS011;858;53.190;8.596;2023-04-03T10:37:56;1.40;;;1.10;;
1721;SDS011;858;53.190;8.596;2023-04-03T10:40:28;1.77;;;1.20;;
1721;SDS011;858;53.190;8.596;2023-04-03T10:42:59;3.10;;;1.42;;
1721;SDS011;858;53.190;8.596;2023-04-03T10:45:29;1.92;;;1.10;;
1721;SDS011;858;53.190;8.596;2023-04-03T10:48:00;3.20;;;1.00;;
1721;SDS011;858;53.190;8.596;2023-04-03T10:50:30;2.20;;;1.10;;
1721;SDS011;858;53.190;8.596;2023-04-03T10:53:00;1.90;;;1.00;;
1721;SDS011;858;53.190;8.596;2023-04-03T10:55:30;2.10;;;1.17;;
1721;SDS011;858;53.190;8.596;2023-04-03T10:57:58;1.83;;;1.10;;
1721;SDS011;858;53.190;8.596;2023-04-03T11:00:26;1.38;;;1.10;;
1721;SDS011;858;53.190;8.596;2023-04-03T11:02:57;2.20;;;1.10;;
1721;SDS011;858;53.190;8.596;2023-04-03T11:05:26;1.70;;;1.33;;
1721;SDS011;858;53.190;8.596;2023-04-03T11:07:55;2.57;;;1.20;;
1721;SDS011;858;53.190;8.596;2023-04-03T11:10:23;2.80;;;1.10;;
1721;SDS011;858;53.190;8.596;2023-04-03T11:12:52;2.45;;;1.10;;
1721;SDS011;858;53.190;8.596;2023-04-03T11:15:20;1.90;;;1.20;;
1721;SDS011;858;53.190;8.596;2023-04-03T11:17:50;2.03;;;1.00;;
1721;SDS011;858;53.190;8.596;2023-04-03T11:20:19;2.30;;;1.13;;
1721;SDS011;858;53.190;8.596;2023-04-03T11:22:47;2.40;;;1.20;;
1721;SDS011;858;53.190;8.596;2023-04-03T11:25:15;4.05;;;1.23;;
1721;SDS011;858;53.190;8.596;2023-04-03T11:27:47;3.45;;;1.40;;
1721;SDS011;858;53.190;8.596;2023-04-03T11:30:15;4.65;;;1.50;;
1721;SDS011;858;53.190;8.596;2023-04-03T11:32:56;2.03;;;1.10;;
1721;SDS011;858;53.190;8.596;2023-04-03T11:35:26;1.60;;;1.00;;
1721;SDS011;858;53.190;8.596;2023-04-03T11:37:53;2.90;;;1.15;;
1721;SDS011;858;53.190;8.596;2023-04-03T11:40:22;1.58;;;1.10;;
1721;SDS011;858;53.190;8.596;2023-04-03T11:42:52;2.75;;;1.60;;
1721;SDS011;858;53.190;8.596;2023-04-03T11:45:29;3.13;;;1.30;;
1721;SDS011;858;53.190;8.596;2023-04-03T11:47:58;2.55;;;1.20;;
1721;SDS011;858;53.190;8.596;2023-04-03T11:50:31;2.35;;;1.10;;
1721;SDS011;858;53.190;8.596;2023-04-03T11:53:03;4.05;;;1.58;;
1721;SDS011;858;53.190;8.596;2023-04-03T11:58:28;2.33;;;1.10;;
1721;SDS011;858;53.190;8.596;2023-04-03T12:00:57;2.72;;;1.00;;
1721;SDS011;858;53.190;8.596;2023-04-03T12:03:30;3.55;;;1.58;;
1721;SDS011;858;53.190;8.596;2023-04-03T12:05:58;4.20;;;1.63;;
1721;SDS011;858;53.190;8.596;2023-04-03T12:08:46;2.60;;;1.30;;
1721;SDS011;858;53.190;8.596;2023-04-03T12:11:14;6.10;;;1.20;;
1721;SDS011;858;53.190;8.596;2023-04-03T12:13:42;2.47;;;1.30;;
1721;SDS011;858;53.190;8.596;2023-04-03T12:16:28;2.72;;;1.17;;
1721;SDS011;858;53.190;8.596;2023-04-03T12:18:56;2.00;;;1.30;;
1721;SDS011;858;53.190;8.596;2023-04-03T12:21:23;3.08;;;1.50;;
1721;SDS011;858;53.190;8.596;2023-04-03T12:26:38;3.08;;;1.40;;
1721;SDS011;858;53.190;8.596;2023-04-03T12:29:10;2.75;;;1.30;;
1721;SDS011;858;53.190;8.596;2023-04-03T12:31:43;2.00;;;1.20;;
1721;SDS011;858;53.190;8.596;2023-04-03T12:34:15;2.60;;;1.20;;
1721;SDS011;858;53.190;8.596;2023-04-03T12:36:46;3.63;;;1.52;;
1721;SDS011;858;53.190;8.596;2023-04-03T12:39:19;2.30;;;1.02;;
1721;SDS011;858;53.190;8.596;2023-04-03T12:41:51;2.47;;;1.50;;
1721;SDS011;858;53.190;8.596;2023-04-03T12:44:25;2.42;;;1.33;;
1721;SDS011;858;53.190;8.596;2023-04-03T12:46:54;4.40;;;1.20;;
1721;SDS011;858;53.190;8.596;2023-04-03T12:49:33;3.75;;;1.50;;
1721;SDS011;858;53.190;8.596;2023-04-03T12:52:00;2.17;;;1.30;;
1721;SDS011;858;53.190;8.596;2023-04-03T12:54:29;2.00;;;1.30;;
1721;SDS011;858;53.190;8.596;2023-04-03T12:57:10;2.38;;;1.10;;
1721;SDS011;858;53.190;8.596;2023-04-03T12:59:37;2.30;;;1.23;;
1721;SDS011;858;53.190;8.596;2023-04-03T13:02:09;4.93;;;1.35;;
1721;SDS011;858;53.190;8.596;2023-04-03T13:04:37;3.53;;;1.20;;
1721;SDS011;858;53.190;8.596;2023-04-03T13:07:04;3.80;;;1.48;;
1721;SDS011;858;53.190;8.596;2023-04-03T13:09:31;3.03;;;1.40;;
1721;SDS011;858;53.190;8.596;2023-04-03T13:11:58;3.30;;;1.50;;
1721;SDS011;858;53.190;8.596;2023-04-03T13:14:27;2.60;;;1.30;;
1721;SDS011;858;53.190;8.596;2023-04-03T13:16:54;3.22;;;1.30;;
1721;SDS011;858;53.190;8.596;2023-04-03T13:19:22;2.47;;;1.10;;
1721;SDS011;858;53.190;8.596;2023-04-03T13:21:49;2.80;;;1.30;;
1721;SDS011;858;53.190;8.596;2023-04-03T13:24:18;3.97;;;1.50;;
1721;SDS011;858;53.190;8.596;2023-04-03T13:26:44;3.00;;;1.40;;
1721;SDS011;858;53.190;8.596;2023-04-03T13:29:19;2.35;;;1.30;;
1721;SDS011;858;53.190;8.596;2023-04-03T13:31:51;2.03;;;1.38;;
1721;SDS011;858;53.190;8.596;2023-04-03T13:34:18;3.15;;;1.50;;
1721;SDS011;858;53.190;8.596;2023-04-03T13:36:46;3.90;;;1.30;;
1721;SDS011;858;53.190;8.596;2023-04-03T13:39:21;2.20;;;1.30;;
1721;SDS011;858;53.190;8.596;2023-04-03T13:41:49;3.03;;;1.67;;
1721;SDS011;858;53.190;8.596;2023-04-03T13:44:26;3.05;;;1.60;;
1721;SDS011;858;53.190;8.596;2023-04-03T13:46:55;3.00;;;1.50;;
1721;SDS011;858;53.190;8.596;2023-04-03T13:49:22;2.20;;;1.40;;
1721;SDS011;858;53.190;8.596;2023-04-03T13:51:52;3.40;;;1.50;;
1721;SDS011;858;53.190;8.596;2023-04-03T13:54:21;3.60;;;1.75;;
1721;SDS011;858;53.190;8.596;2023-04-03T13:56:52;2.13;;;1.30;;
1721;SDS011;858;53.190;8.596;2023-04-03T13:59:21;4.07;;;1.50;;
1721;SDS011;858;53.190;8.596;2023-04-03T14:01:50;3.30;;;1.58;;
1721;SDS011;858;53.190;8.596;2023-04-03T14:04:22;3.17;;;1.60;;
1721;SDS011;858;53.190;8.596;2023-04-03T14:06:49;2.00;;;1.30;;
1721;SDS011;858;53.190;8.596;2023-04-03T14:09:17;3.50;;;1.20;;
1721;SDS011;858;53.190;8.596;2023-04-03T14:11:43;3.42;;;1.50;;
1721;SDS011;858;53.190;8.596;2023-04-03T14:14:12;1.90;;;1.40;;
1721;SDS011;858;53.190;8.596;2023-04-03T14:16:40;1.90;;;1.33;;
1721;SDS011;858;53.190;8.596;2023-04-03T14:19:09;2.63;;;1.40;;
1721;SDS011;858;53.190;8.596;2023-04-03T14:21:43;3.25;;;1.50;;
1721;SDS011;858;53.190;8.596;2023-04-03T14:24:09;3.45;;;1.42;;
1721;SDS011;858;53.190;8.596;2023-04-03T14:26:37;2.42;;;1.50;;
1721;SDS011;858;53.190;8.596;2023-04-03T14:29:03;2.60;;;1.70;;
1721;SDS011;858;53.190;8.596;2023-04-03T14:31:31;2.70;;;1.60;;
1721;SDS011;858;53.190;8.596;2023-04-03T14:33:57;2.42;;;1.60;;
1721;SDS011;858;53.190;8.596;2023-04-03T14:36:25;2.00;;;1.30;;
1721;SDS011;858;53.190;8.596;2023-04-03T14:38:53;2.80;;;1.50;;
1721;SDS011;858;53.190;8.596;2023-04-03T14:41:20;2.00;;;1.20;;
1721;SDS011;858;53.190;8.596;2023-04-03T14:43:47;3.15;;;1.80;;
1721;SDS011;858;53.190;8.596;2023-04-03T14:46:14;2.90;;;1.60;;
1721;SDS011;858;53.190;8.596;2023-04-03T14:48:41;3.20;;;1.40;;
1721;SDS011;858;53.190;8.596;2023-04-03T14:51:08;2.53;;;1.50;;
1721;SDS011;858;53.190;8.596;2023-04-03T14:53:35;2.03;;;1.23;;
1721;SDS011;858;53.190;8.596;2023-04-03T14:56:04;2.60;;;1.60;;
1721;SDS011;858;53.190;8.596;2023-04-03T14:58:31;2.40;;;1.83;;
1721;SDS011;858;53.190;8.596;2023-04-03T15:00:57;4.47;;;1.52;;
1721;SDS011;858;53.190;8.596;2023-04-03T15:03:24;3.08;;;1.63;;
1721;SDS011;858;53.190;8.596;2023-04-03T15:05:51;3.20;;;1.80;;
1721;SDS011;858;53.190;8.596;2023-04-03T15:08:18;3.17;;;1.40;;
1721;SDS011;858;53.190;8.596;2023-04-03T15:10:46;1.92;;;1.45;;
1721;SDS011;858;53.190;8.596;2023-04-03T15:13:14;3.80;;;1.80;;
1721;SDS011;858;53.190;8.596;2023-04-03T15:15:40;3.03;;;1.65;;
1721;SDS011;858;53.190;8.596;2023-04-03T15:18:09;3.72;;;1.60;;
1721;SDS011;858;53.190;8.596;2023-04-03T15:20:36;2.55;;;1.40;;
1721;SDS011;858;53.190;8.596;2023-04-03T15:23:03;5.18;;;2.00;;
1721;SDS011;858;53.190;8.596;2023-04-03T15:25:30;3.72;;;1.90;;
1721;SDS011;858;53.190;8.596;2023-04-03T15:27:57;4.57;;;1.47;;
1721;SDS011;858;53.190;8.596;2023-04-03T15:30:25;3.73;;;1.50;;
1721;SDS011;858;53.190;8.596;2023-04-03T15:32:52;3.50;;;1.80;;
1721;SDS011;858;53.190;8.596;2023-04-03T15:35:18;2.72;;;1.98;;
1721;SDS011;858;53.190;8.596;2023-04-03T15:37:45;3.85;;;1.83;;
1721;SDS011;858;53.190;8.596;2023-04-03T15:40:13;3.17;;;1.63;;
1721;SDS011;858;53.190;8.596;2023-04-03T15:42:39;4.30;;;1.80;;